createdAt,value
2023-05-06T00:02:07.490Z,10.54
2023-05-06T00:04:46.970Z,9.88
2023-05-06T00:07:26.377Z,10.05
2023-05-06T00:10:05.726Z,10.18
2023-05-06T00:12:50.095Z,9.63
2023-05-06T00:15:30.873Z,9.87
2023-05-06T00:18:11.621Z,9.41
2023-05-06T00:20:50.994Z,9.12
2023-05-06T00:23:30.287Z,9.59
2023-05-06T00:26:09.607Z,9.10
2023-05-06T00:28:53.956Z,8.59
2023-05-06T00:31:33.260Z,8.79
2023-05-06T00:34:12.591Z,8.47
2023-05-06T00:36:51.855Z,8.87
2023-05-06T00:39:33.001Z,9.26
2023-05-06T00:42:12.343Z,9.40
2023-05-06T00:44:56.777Z,8.78
2023-05-06T00:47:36.157Z,9.24
2023-05-06T00:50:16.364Z,9.37
2023-05-06T00:52:56.597Z,10.03
2023-05-06T00:55:36.147Z,10.02
2023-05-06T00:58:16.264Z,8.80
2023-05-06T01:01:02.952Z,8.60
2023-05-06T01:03:42.315Z,8.65
2023-05-06T01:06:31.734Z,8.92
2023-05-06T01:09:25.937Z,9.35
2023-05-06T01:12:17.765Z,8.61
2023-05-06T01:15:09.836Z,8.75
2023-05-06T01:17:58.762Z,8.61
2023-05-06T01:20:40.164Z,8.56
2023-05-06T01:23:25.483Z,8.89
2023-05-06T01:26:04.737Z,9.23
2023-05-06T01:28:44.054Z,9.31
2023-05-06T01:31:32.579Z,9.49
2023-05-06T01:34:21.679Z,10.09
2023-05-06T01:37:12.255Z,9.32
2023-05-06T01:39:59.425Z,9.48
2023-05-06T01:42:41.675Z,9.66
2023-05-06T01:45:23.352Z,9.86
2023-05-06T01:48:04.321Z,9.91
2023-05-06T01:50:44.925Z,9.97
2023-05-06T01:53:24.254Z,9.87
2023-05-06T01:56:08.655Z,9.97
2023-05-06T01:58:48.012Z,9.34
2023-05-06T02:01:27.391Z,9.46
2023-05-06T02:04:07.809Z,9.84
2023-05-06T02:06:47.168Z,10.34
2023-05-06T02:09:26.517Z,9.83
2023-05-06T02:12:11.204Z,9.85
2023-05-06T02:14:50.481Z,9.42
2023-05-06T02:17:29.836Z,9.04
2023-05-06T02:20:10.777Z,9.07
2023-05-06T02:22:50.135Z,8.87
2023-05-06T02:25:30.081Z,8.49
2023-05-06T02:28:14.461Z,8.49
2023-05-06T02:30:53.892Z,8.47
2023-05-06T02:33:33.307Z,7.67
2023-05-06T02:36:13.289Z,7.38
2023-05-06T02:38:52.626Z,7.50
2023-05-06T02:41:32.330Z,8.58
2023-05-06T02:44:16.751Z,7.78
2023-05-06T02:46:55.989Z,8.06
2023-05-06T02:49:35.248Z,8.26
2023-05-06T02:52:14.486Z,8.94
2023-05-06T02:54:53.740Z,9.11
2023-05-06T02:57:32.962Z,8.88
2023-05-06T03:00:18.681Z,9.27
2023-05-06T03:02:57.938Z,8.48
2023-05-06T03:05:37.299Z,8.80
2023-05-06T03:08:16.584Z,8.93
2023-05-06T03:10:56.132Z,9.07
2023-05-06T03:13:35.378Z,8.96
2023-05-06T03:16:24.083Z,9.14
2023-05-06T03:19:04.840Z,8.62
2023-05-06T03:21:44.099Z,9.09
2023-05-06T03:24:23.347Z,8.66
2023-05-06T03:27:02.966Z,8.21
2023-05-06T03:29:42.233Z,8.47
2023-05-06T03:32:26.539Z,8.83
2023-05-06T03:35:05.832Z,8.76
2023-05-06T03:37:45.158Z,8.62
2023-05-06T03:40:24.581Z,9.72
2023-05-06T03:43:03.906Z,8.37
2023-05-06T03:45:43.336Z,7.37
2023-05-06T03:48:27.656Z,7.18
2023-05-06T03:51:06.979Z,7.95
2023-05-06T03:53:46.282Z,8.16
2023-05-06T03:56:25.490Z,8.30
2023-05-06T03:59:04.921Z,7.68
2023-05-06T04:01:44.283Z,7.53
2023-05-06T04:04:30.555Z,7.81
2023-05-06T04:07:10.216Z,8.19
2023-05-06T04:09:49.452Z,8.14
2023-05-06T04:12:28.729Z,8.22
2023-05-06T04:15:08.743Z,8.58
2023-05-06T04:17:48.302Z,8.60
2023-05-06T04:20:32.687Z,8.90
2023-05-06T04:23:11.938Z,8.58
2023-05-06T04:25:54.140Z,8.37
2023-05-06T04:28:33.556Z,8.44
2023-05-06T04:31:12.827Z,7.98
2023-05-06T04:33:54.636Z,8.29
2023-05-06T04:36:40.573Z,8.41
2023-05-06T04:39:20.133Z,8.30
2023-05-06T04:41:59.350Z,8.86
2023-05-06T04:44:38.701Z,7.83
2023-05-06T04:47:18.288Z,8.26
2023-05-06T04:49:57.591Z,8.24
2023-05-06T04:52:42.100Z,8.19
2023-05-06T04:55:21.441Z,8.50
2023-05-06T04:58:00.678Z,8.87
2023-05-06T05:00:40.250Z,9.19
2023-05-06T05:03:19.692Z,19.65
2023-05-06T05:05:59.059Z,15.08
2023-05-06T05:08:43.338Z,14.39
2023-05-06T05:11:22.723Z,15.60
2023-05-06T05:14:02.425Z,11.36
2023-05-06T05:16:42.065Z,10.92
2023-05-06T05:19:21.369Z,9.13
2023-05-06T05:22:00.654Z,8.64
2023-05-06T05:24:44.946Z,8.41
2023-05-06T05:27:24.563Z,8.00
2023-05-06T05:30:03.820Z,8.50
2023-05-06T05:32:43.223Z,7.91
2023-05-06T05:35:22.526Z,8.08
2023-05-06T05:38:02.313Z,8.08
2023-05-06T05:40:46.616Z,8.88
2023-05-06T05:43:27.259Z,9.49
2023-05-06T05:46:06.608Z,10.53
2023-05-06T05:48:46.101Z,9.87
2023-05-06T05:51:25.331Z,8.60
2023-05-06T05:54:04.565Z,7.82
2023-05-06T05:56:48.916Z,8.01
2023-05-06T05:59:28.160Z,8.22
2023-05-06T06:02:07.427Z,8.11
2023-05-06T06:04:46.760Z,7.86
2023-05-06T06:07:26.631Z,8.44
2023-05-06T06:10:05.927Z,8.57
2023-05-06T06:12:50.437Z,9.29
2023-05-06T06:15:30.519Z,9.48
2023-05-06T06:18:10.173Z,8.68
2023-05-06T06:20:51.062Z,8.72
2023-05-06T06:23:32.371Z,8.67
2023-05-06T06:26:12.328Z,9.59
2023-05-06T06:28:56.920Z,8.71
2023-05-06T06:31:38.317Z,8.51
2023-05-06T06:34:19.007Z,8.82
2023-05-06T06:36:58.542Z,9.69
2023-05-06T06:39:37.854Z,8.32
2023-05-06T06:42:17.132Z,8.42
2023-05-06T06:45:01.579Z,8.79
2023-05-06T06:47:40.824Z,8.81
2023-05-06T06:50:20.155Z,8.57
2023-05-06T06:52:59.469Z,8.61
2023-05-06T06:55:38.845Z,8.31
2023-05-06T06:58:18.278Z,8.41
2023-05-06T07:01:02.786Z,7.88
2023-05-06T07:03:42.145Z,8.66
2023-05-06T07:06:21.470Z,8.27
2023-05-06T07:09:00.848Z,7.73
2023-05-06T07:11:40.148Z,7.74
2023-05-06T07:14:20.945Z,7.87
2023-05-06T07:17:05.804Z,7.13
2023-05-06T07:19:45.074Z,7.16
2023-05-06T07:22:24.413Z,7.10
2023-05-06T07:25:03.662Z,6.44
2023-05-06T07:27:43.002Z,6.22
2023-05-06T07:30:23.389Z,6.67
2023-05-06T07:33:08.197Z,6.69
2023-05-06T07:35:47.559Z,6.09
2023-05-06T07:38:29.140Z,5.91
2023-05-06T07:41:08.389Z,6.26
2023-05-06T07:43:47.745Z,5.66
2023-05-06T07:46:27.276Z,5.78
2023-05-06T07:49:11.691Z,5.44
2023-05-06T07:51:55.524Z,5.28
2023-05-06T07:54:34.805Z,5.54
2023-05-06T07:57:14.030Z,5.07
2023-05-06T07:59:56.061Z,5.24
2023-05-06T08:02:35.398Z,4.99
2023-05-06T08:05:20.300Z,5.00
2023-05-06T08:07:59.955Z,4.13
2023-05-06T08:10:39.308Z,4.46
2023-05-06T08:13:19.076Z,4.39
2023-05-06T08:15:58.903Z,4.56
2023-05-06T08:18:38.233Z,4.20
2023-05-06T08:21:22.626Z,4.08
2023-05-06T08:24:01.885Z,4.07
2023-05-06T08:26:41.175Z,4.32
2023-05-06T08:29:20.411Z,4.25
2023-05-06T08:31:59.776Z,3.81
2023-05-06T08:34:39.067Z,3.80
2023-05-06T08:40:09.058Z,3.36
2023-05-06T08:42:52.810Z,3.77
2023-05-06T08:45:32.625Z,3.41
2023-05-06T08:48:12.391Z,3.36
2023-05-06T08:50:52.231Z,3.37
2023-05-06T08:53:37.128Z,3.28
2023-05-06T08:56:21.264Z,3.33
2023-05-06T08:59:02.546Z,3.20
2023-05-06T09:01:43.006Z,3.08
2023-05-06T09:04:25.029Z,3.10
2023-05-06T09:07:06.014Z,2.80
2023-05-06T09:09:50.382Z,2.64
2023-05-06T09:12:31.256Z,2.82
2023-05-06T09:15:11.262Z,2.89
2023-05-06T09:17:51.360Z,2.87
2023-05-06T09:20:30.778Z,2.79
2023-05-06T09:23:10.670Z,2.53
2023-05-06T09:25:56.037Z,2.58
2023-05-06T09:28:40.365Z,2.49
2023-05-06T09:31:22.070Z,2.19
2023-05-06T09:34:02.028Z,2.30
2023-05-06T09:36:41.559Z,2.13
2023-05-06T09:39:20.848Z,2.06
2023-05-06T09:42:05.285Z,2.13
2023-05-06T09:44:44.715Z,1.87
2023-05-06T09:47:24.542Z,1.97
2023-05-06T09:50:04.747Z,1.92
2023-05-06T09:52:44.859Z,1.98
2023-05-06T09:55:27.835Z,1.85
2023-05-06T09:58:14.433Z,1.65
2023-05-06T10:00:54.568Z,1.84
2023-05-06T10:03:34.988Z,1.73
2023-05-06T10:06:17.901Z,1.62
2023-05-06T10:08:58.294Z,1.56
2023-05-06T10:11:38.794Z,1.40
2023-05-06T10:14:23.914Z,1.69
2023-05-06T10:17:03.374Z,1.73
2023-05-06T10:19:46.811Z,1.79
2023-05-06T10:22:36.892Z,1.42
2023-05-06T10:25:25.077Z,1.54
2023-05-06T10:28:06.245Z,1.35
2023-05-06T10:30:53.069Z,1.30
2023-05-06T10:33:35.381Z,1.48
2023-05-06T10:36:23.008Z,1.29
2023-05-06T10:39:05.816Z,1.49
2023-05-06T10:41:45.717Z,1.39
2023-05-06T10:44:25.016Z,1.82
2023-05-06T10:47:10.341Z,1.53
2023-05-06T10:49:49.656Z,1.50
2023-05-06T10:52:28.962Z,1.50
2023-05-06T10:55:09.017Z,1.66
2023-05-06T10:57:50.466Z,1.62
2023-05-06T11:00:30.759Z,1.49
2023-05-06T11:03:19.991Z,1.36
2023-05-06T11:06:02.389Z,1.62
2023-05-06T11:08:42.040Z,1.72
2023-05-06T11:11:52.154Z,1.71
2023-05-06T11:14:36.936Z,1.82
2023-05-06T11:17:36.163Z,1.64
2023-05-06T11:20:33.670Z,1.78
2023-05-06T11:23:13.015Z,1.74
2023-05-06T11:25:53.345Z,1.67
2023-05-06T11:28:32.885Z,1.99
2023-05-06T11:31:13.491Z,1.72
2023-05-06T11:33:56.236Z,1.71
2023-05-06T11:36:42.011Z,1.78
2023-05-06T11:39:21.348Z,1.69
2023-05-06T11:42:00.784Z,1.86
2023-05-06T11:44:41.917Z,1.63
2023-05-06T11:47:21.228Z,1.69
2023-05-06T11:50:08.941Z,1.79
2023-05-06T11:52:53.645Z,1.68
2023-05-06T11:55:33.367Z,1.58
2023-05-06T11:58:12.660Z,1.75
2023-05-06T12:00:57.125Z,1.80
2023-05-06T12:03:38.638Z,1.77
2023-05-06T12:06:18.011Z,1.59
2023-05-06T12:09:02.641Z,1.44
2023-05-06T12:11:44.863Z,1.48
2023-05-06T12:14:25.315Z,1.55
2023-05-06T12:17:04.895Z,1.42
2023-05-06T12:19:45.742Z,1.50
2023-05-06T12:22:26.176Z,1.32
2023-05-06T12:25:21.226Z,1.39
2023-05-06T12:28:00.549Z,1.32
2023-05-06T12:30:40.631Z,1.49
2023-05-06T12:33:20.893Z,1.20
2023-05-06T12:36:00.641Z,1.25
2023-05-06T12:38:40.013Z,1.23
2023-05-06T12:41:24.493Z,1.36
2023-05-06T12:44:03.817Z,1.18
2023-05-06T12:46:43.071Z,1.22
2023-05-06T12:49:22.453Z,1.30
2023-05-06T12:52:15.721Z,1.31
2023-05-06T12:54:56.113Z,1.39
2023-05-06T12:57:40.486Z,1.38
2023-05-06T13:00:21.221Z,1.35
2023-05-06T13:03:00.569Z,1.48
2023-05-06T13:05:39.983Z,1.64
2023-05-06T13:08:19.252Z,1.59
2023-05-06T13:10:58.554Z,1.62
2023-05-06T13:13:43.494Z,1.58
2023-05-06T13:16:22.951Z,1.20
2023-05-06T13:19:02.379Z,1.20
2023-05-06T13:21:41.650Z,1.26
2023-05-06T13:24:21.060Z,1.56
2023-05-06T13:27:01.903Z,1.50
2023-05-06T13:29:46.477Z,1.33
2023-05-06T13:32:25.835Z,1.38
2023-05-06T13:35:06.913Z,1.31
2023-05-06T13:37:46.261Z,1.44
2023-05-06T13:40:25.860Z,1.40
2023-05-06T13:43:05.139Z,1.52
2023-05-06T13:45:50.310Z,1.51
2023-05-06T13:48:29.603Z,1.43
2023-05-06T13:51:08.989Z,1.41
2023-05-06T13:53:48.304Z,1.43
2023-05-06T13:56:27.840Z,1.51
2023-05-06T13:59:09.556Z,1.50
2023-05-06T14:01:55.301Z,1.49
2023-05-06T14:04:34.725Z,1.54
2023-05-06T14:07:14.010Z,1.37
2023-05-06T14:09:53.275Z,1.61
2023-05-06T14:12:32.528Z,1.53
2023-05-06T14:15:14.079Z,1.65
2023-05-06T14:17:58.457Z,1.46
2023-05-06T14:20:37.976Z,1.67
2023-05-06T14:23:17.301Z,1.49
2023-05-06T14:25:56.866Z,1.57
2023-05-06T14:28:36.172Z,1.60
2023-05-06T14:31:15.543Z,1.45
2023-05-06T14:34:02.748Z,1.35
2023-05-06T14:36:42.068Z,1.61
2023-05-06T14:39:21.354Z,1.37
2023-05-06T14:42:00.618Z,1.44
2023-05-06T14:44:40.088Z,1.50
2023-05-06T14:47:19.316Z,1.29
2023-05-06T14:50:03.834Z,1.32
2023-05-06T14:52:43.484Z,1.18
2023-05-06T14:55:22.764Z,1.20
2023-05-06T14:58:02.249Z,1.25
2023-05-06T15:00:41.662Z,1.41
2023-05-06T15:03:20.989Z,1.35
2023-05-06T15:06:05.478Z,1.41
2023-05-06T15:08:44.784Z,1.41
2023-05-06T15:11:24.214Z,1.58
2023-05-06T15:14:03.441Z,1.31
2023-05-06T15:16:42.821Z,1.46
2023-05-06T15:19:22.096Z,1.33
2023-05-06T15:22:08.689Z,1.37
2023-05-06T15:24:47.981Z,1.32
2023-05-06T15:27:27.265Z,1.43
2023-05-06T15:30:07.465Z,1.44
2023-05-06T15:32:46.712Z,1.40
2023-05-06T15:35:26.070Z,1.26
2023-05-06T15:38:11.636Z,1.22
2023-05-06T15:40:57.798Z,1.16
2023-05-06T15:43:38.821Z,1.29
2023-05-06T15:46:18.946Z,1.39
2023-05-06T15:49:21.159Z,1.41
2023-05-06T15:52:00.857Z,1.44
2023-05-06T15:54:49.671Z,1.24
2023-05-06T15:57:30.135Z,1.33
2023-05-06T16:00:09.848Z,1.37
2023-05-06T16:02:49.436Z,1.37
2023-05-06T16:05:28.879Z,1.40
2023-05-06T16:08:08.352Z,1.61
2023-05-06T16:10:52.722Z,1.30
2023-05-06T16:13:32.027Z,1.45
2023-05-06T16:16:12.044Z,1.67
2023-05-06T16:18:51.395Z,1.49
2023-05-06T16:21:30.730Z,1.49
2023-05-06T16:24:10.050Z,1.31
2023-05-06T16:26:54.368Z,1.42
2023-05-06T16:29:33.633Z,1.39
2023-05-06T16:32:12.972Z,1.44
2023-05-06T16:34:52.257Z,1.43
2023-05-06T16:37:31.569Z,1.46
2023-05-06T16:40:11.898Z,1.41
2023-05-06T16:42:56.672Z,1.45
2023-05-06T16:45:38.747Z,1.50
2023-05-06T16:48:18.587Z,1.57
2023-05-06T16:50:58.211Z,1.40
2023-05-06T16:53:37.471Z,1.46
2023-05-06T16:56:16.878Z,1.54
2023-05-06T16:59:01.301Z,1.42
2023-05-06T17:01:40.560Z,1.39
2023-05-06T17:04:19.791Z,1.58
2023-05-06T17:06:59.831Z,1.45
2023-05-06T17:09:39.059Z,1.38
2023-05-06T17:12:18.386Z,1.35
2023-05-06T17:15:02.703Z,1.36
2023-05-06T17:17:42.132Z,1.45
2023-05-06T17:20:21.572Z,1.52
2023-05-06T17:23:00.815Z,1.33
2023-05-06T17:25:40.033Z,1.50
2023-05-06T17:28:19.357Z,1.39
2023-05-06T17:31:03.731Z,1.48
2023-05-06T17:33:43.039Z,1.42
2023-05-06T17:36:23.058Z,1.39
2023-05-06T17:39:09.520Z,1.37
2023-05-06T17:41:48.790Z,1.55
2023-05-06T17:44:28.070Z,2.72
2023-05-06T17:47:12.479Z,3.30
2023-05-06T17:49:51.844Z,6.40
2023-05-06T17:52:32.413Z,5.76
2023-05-06T17:55:17.457Z,3.64
2023-05-06T17:57:57.045Z,2.56
2023-05-06T18:00:36.364Z,2.54
2023-05-06T18:03:21.223Z,2.68
2023-05-06T18:06:01.121Z,2.56
2023-05-06T18:08:45.871Z,3.13
2023-05-06T18:11:25.504Z,2.73
2023-05-06T18:14:04.976Z,1.92
2023-05-06T18:16:44.410Z,1.84
2023-05-06T18:19:28.784Z,1.96
2023-05-06T18:22:08.260Z,1.68
2023-05-06T18:24:47.580Z,1.58
2023-05-06T18:27:28.552Z,1.60
2023-05-06T18:30:07.804Z,1.69
2023-05-06T18:32:49.366Z,1.66
2023-05-06T18:35:35.129Z,1.64
2023-05-06T18:38:14.775Z,1.78
2023-05-06T18:40:54.515Z,1.62
2023-05-06T18:43:33.810Z,1.80
2023-05-06T18:46:13.294Z,1.67
2023-05-06T18:48:57.497Z,1.76
2023-05-06T18:51:41.888Z,1.90
2023-05-06T18:54:21.107Z,1.92
2023-05-06T18:57:00.432Z,1.92
2023-05-06T18:59:40.038Z,1.65
2023-05-06T19:02:19.279Z,1.77
2023-05-06T19:04:59.442Z,1.59
2023-05-06T19:07:43.768Z,1.69
2023-05-06T19:10:23.032Z,1.76
2023-05-06T19:13:02.410Z,1.66
2023-05-06T19:15:41.658Z,1.57
2023-05-06T19:18:20.905Z,1.72
2023-05-06T19:21:00.181Z,1.70
2023-05-06T19:23:44.667Z,1.92
2023-05-06T19:26:23.927Z,1.94
2023-05-06T19:29:03.285Z,2.00
2023-05-06T19:31:42.573Z,2.10
2023-05-06T19:34:22.122Z,2.30
2023-05-06T19:37:01.670Z,2.38
2023-05-06T19:39:47.578Z,2.39
2023-05-06T19:42:26.801Z,2.07
2023-05-06T19:45:06.111Z,2.37
2023-05-06T19:47:45.983Z,2.45
2023-05-06T19:50:25.455Z,2.64
2023-05-06T19:53:04.924Z,2.60
2023-05-06T19:55:49.217Z,3.29
2023-05-06T19:58:28.474Z,3.39
2023-05-06T20:01:07.770Z,3.07
2023-05-06T20:03:47.507Z,2.68
2023-05-06T20:06:26.866Z,2.59
2023-05-06T20:09:06.146Z,2.40
2023-05-06T20:11:50.442Z,2.47
2023-05-06T20:14:29.862Z,2.76
2023-05-06T20:17:09.539Z,3.11
2023-05-06T20:19:49.137Z,2.99
2023-05-06T20:22:28.385Z,3.13
2023-05-06T20:25:17.140Z,3.06
2023-05-06T20:28:01.653Z,3.02
2023-05-06T20:30:41.245Z,2.86
2023-05-06T20:33:20.530Z,2.98
2023-05-06T20:35:59.792Z,2.80
2023-05-06T20:38:39.025Z,2.76
2023-05-06T20:41:18.287Z,2.98
2023-05-06T20:44:03.688Z,2.92
2023-05-06T20:46:42.916Z,2.72
2023-05-06T20:49:22.220Z,2.63
2023-05-06T20:52:02.342Z,2.73
2023-05-06T20:54:41.713Z,2.93
2023-05-06T20:57:22.585Z,2.88
2023-05-06T21:00:10.670Z,3.17
2023-05-06T21:02:50.410Z,3.63
2023-05-06T21:05:30.054Z,3.33
2023-05-06T21:08:09.914Z,3.44
2023-05-06T21:10:49.160Z,3.52
2023-05-06T21:13:28.744Z,3.58
2023-05-06T21:16:13.233Z,3.67
2023-05-06T21:18:52.586Z,3.62
2023-05-06T21:21:32.026Z,3.66
2023-05-06T21:24:11.950Z,3.88
2023-05-06T21:26:52.406Z,3.77
2023-05-06T21:29:31.643Z,4.16
2023-05-06T21:32:16.220Z,3.68
2023-05-06T21:34:55.512Z,3.58
2023-05-06T21:37:36.812Z,3.80
2023-05-06T21:40:17.729Z,3.86
2023-05-06T21:42:57.436Z,3.68
2023-05-06T21:45:36.658Z,3.41
2023-05-06T21:48:21.090Z,3.44
2023-05-06T21:51:01.529Z,3.42
2023-05-06T21:53:40.765Z,3.45
2023-05-06T21:56:19.986Z,3.48
2023-05-06T21:59:00.930Z,3.62
2023-05-06T22:01:40.522Z,3.58
2023-05-06T22:04:24.861Z,3.30
2023-05-06T22:07:04.234Z,3.70
2023-05-06T22:09:43.471Z,3.50
2023-05-06T22:12:23.029Z,3.61
2023-05-06T22:15:02.315Z,3.63
2023-05-06T22:17:41.726Z,3.65
2023-05-06T22:20:26.208Z,3.76
2023-05-06T22:23:05.494Z,3.94
2023-05-06T22:25:44.753Z,3.83
2023-05-06T22:28:24.112Z,3.88
2023-05-06T22:31:03.429Z,4.39
2023-05-06T22:33:42.660Z,4.33
2023-05-06T22:36:28.020Z,4.40
2023-05-06T22:39:07.877Z,4.19
2023-05-06T22:41:47.200Z,4.60
2023-05-06T22:44:26.473Z,4.58
2023-05-06T22:47:05.704Z,4.77
2023-05-06T22:49:45.577Z,4.58
2023-05-06T22:52:30.397Z,4.96
2023-05-06T22:55:11.099Z,4.65
2023-05-06T22:57:51.204Z,4.67
2023-05-06T23:00:30.566Z,4.70
2023-05-06T23:03:09.909Z,4.11
2023-05-06T23:05:49.152Z,3.86
2023-05-06T23:08:33.458Z,4.28
2023-05-06T23:11:12.746Z,4.31
2023-05-06T23:13:52.077Z,4.29
2023-05-06T23:16:31.378Z,4.42
2023-05-06T23:19:10.702Z,4.40
2023-05-06T23:21:50.017Z,4.28
2023-05-06T23:24:34.329Z,4.44
2023-05-06T23:27:13.624Z,4.41
2023-05-06T23:29:53.015Z,4.59
2023-05-06T23:32:32.299Z,4.43
2023-05-06T23:35:12.847Z,4.92
2023-05-06T23:37:52.356Z,4.54
2023-05-06T23:40:36.674Z,4.63
2023-05-06T23:43:16.078Z,4.54
2023-05-06T23:45:55.331Z,4.61
2023-05-06T23:48:34.594Z,4.72
2023-05-06T23:51:13.866Z,5.64
2023-05-06T23:53:53.361Z,5.64
2023-05-06T23:56:37.719Z,5.31
2023-05-06T23:59:17.799Z,5.30
